Time;durP1;ratioP1;P1;durP2;ratioP2;P2;SDS_P1;SDS_P2;PMS_P1;PMS_P2;Temp;Humidity;BMP_temperature;BMP_pressure;BME280_temperature;BME280_humidity;BME280_pressure;Samples;Min_cycle;Max_cycle;Signal;HPM_P1;HPM_P2
2022/08/27 00:02:19;;;;;;;;;;;;;;;;;;4995623;28;20362;-66
2022/08/27 00:04:45;;;;;;;;;;;;;;;;;;5012473;28;19909;-65
2022/08/27 00:07:10;;;;;;;;;;;;;;;;;;4995048;28;19964;-65
2022/08/27 00:09:35;;;;;;;;;;;;;;;;;;5010855;28;19917;-65
2022/08/27 00:12:00;;;;;;;;;;;;;;;;;;5011384;28;19913;-65
2022/08/27 00:14:25;;;;;;;;;;;;;;;;;;5008919;28;19921;-65
2022/08/27 00:16:50;;;;;;;;;;;;;;;;;;4994539;28;19910;-65
2022/08/27 00:19:16;;;;;;;;;;;;;;;;;;5011286;28;19918;-65
2022/08/27 00:21:41;;;;;;;;;;;;;;;;;;5000488;28;19917;-65
2022/08/27 00:24:06;;;;;;;;;;;;;;;;;;5014903;28;20301;-65
2022/08/27 00:26:31;;;;;;;;;;;;;;;;;;5015815;28;19917;-64
2022/08/27 00:28:56;;;;;;;;;;;;;;;;;;5015648;28;20270;-65
2022/08/27 00:31:22;;;;;;;;;;;;;;;;;;5020783;28;20373;-65
2022/08/27 00:33:47;;;;;;;;;;;;;;;;;;5000506;28;20382;-65
2022/08/27 00:36:12;;;;;;;;;;;;;;;;;;4998297;28;19910;-65
2022/08/27 00:38:37;;;;;;;;;;;;;;;;;;5014995;28;19951;-65
2022/08/27 00:41:02;;;;;;;;;;;;;;;;;;5025694;28;20392;-65
2022/08/27 00:43:27;;;;;;;;;;;;;;;;;;5009161;28;19913;-65
2022/08/27 00:45:53;;;;;;;;;;;;;;;;;;5012932;28;20369;-64
2022/08/27 00:48:18;;;;;;;;;;;;;;;;;;5015561;28;19925;-64
2022/08/27 00:50:43;;;;;;;;;;;;;;;;;;5014347;28;19910;-65
2022/08/27 00:53:09;;;;;;;;;;;;;;;;;;5014169;28;20012;-64
2022/08/27 00:55:37;;;;;;;;;;;;;;;;;;4997949;28;20382;-65
2022/08/27 00:58:02;;;;;;;;;;;;;;;;;;5015518;28;19913;-65
2022/08/27 01:00:27;;;;;;;;;;;;;;;;;;4996463;28;19948;-65
2022/08/27 01:02:52;;;;;;;;;;;;;;;;;;5013052;28;19917;-65
2022/08/27 01:05:17;;;;;;;;;;;;;;;;;;5024808;28;19917;-65
2022/08/27 01:07:43;;;;;;;;;;;;;;;;;;5005511;28;20373;-65
2022/08/27 01:10:08;;;;;;;;;;;;;;;;;;4996931;28;20422;-65
2022/08/27 01:12:33;;;;;;;;;;;;;;;;;;5003763;28;19917;-64
2022/08/27 01:14:58;;;;;;;;;;;;;;;;;;5011094;28;19975;-65
2022/08/27 01:17:23;;;;;;;;;;;;;;;;;;5015027;28;19909;-65
2022/08/27 01:19:49;;;;;;;;;;;;;;;;;;5011173;28;19914;-65
2022/08/27 01:22:14;;;;;;;;;;;;;;;;;;4978615;28;20008;-65
2022/08/27 01:24:39;;;;;;;;;;;;;;;;;;5013951;28;19910;-64
2022/08/27 01:27:04;;;;;;;;;;;;;;;;;;5014964;28;19917;-64
2022/08/27 01:29:29;;;;;;;;;;;;;;;;;;5008317;28;19948;-63
2022/08/27 01:31:55;;;;;;;;;;;;;;;;;;5014606;28;19917;-64
2022/08/27 01:34:20;;;;;;;;;;;;;;;;;;5005176;28;19917;-65
2022/08/27 01:36:45;;;;;;;;;;;;;;;;;;5003356;28;19909;-64
2022/08/27 01:39:10;;;;;;;;;;;;;;;;;;5013942;28;19916;-65
2022/08/27 01:41:35;;;;;;;;;;;;;;;;;;5027324;28;19913;-65
2022/08/27 01:44:00;;;;;;;;;;;;;;;;;;5011774;28;19929;-65
2022/08/27 01:46:26;;;;;;;;;;;;;;;;;;4996829;28;19976;-65
2022/08/27 01:48:51;;;;;;;;;;;;;;;;;;5012292;28;19914;-65
2022/08/27 01:51:16;;;;;;;;;;;;;;;;;;4995041;28;19920;-65
2022/08/27 01:53:41;;;;;;;;;;;;;;;;;;5004317;28;19937;-65
2022/08/27 01:56:06;;;;;;;;;;;;;;;;;;5014539;28;19913;-65
2022/08/27 01:58:32;;;;;;;;;;;;;;;;;;5014559;28;19909;-65
2022/08/27 02:00:58;;;;;;;;;;;;;;;;;;5028770;28;19913;-65
2022/08/27 02:03:23;;;;;;;;;;;;;;;;;;4997044;28;20297;-65
2022/08/27 02:05:48;;;;;;;;;;;;;;;;;;4996441;28;20392;-65
2022/08/27 02:08:14;;;;;;;;;;;;;;;;;;5013739;28;19909;-65
2022/08/27 02:10:39;;;;;;;;;;;;;;;;;;4995348;28;20424;-65
2022/08/27 02:13:05;;;;;;;;;;;;;;;;;;5014039;28;19917;-65
2022/08/27 02:15:30;;;;;;;;;;;;;;;;;;4989355;28;19922;-65
2022/08/27 02:17:56;;;;;;;;;;;;;;;;;;5013870;28;19910;-65
2022/08/27 02:20:21;;;;;;;;;;;;;;;;;;5000230;28;19924;-65
2022/08/27 02:22:46;;;;;;;;;;;;;;;;;;5029166;28;20379;-65
2022/08/27 02:25:12;;;;;;;;;;;;;;;;;;5004017;28;19917;-65
2022/08/27 02:27:37;;;;;;;;;;;;;;;;;;4994408;28;19910;-65
2022/08/27 02:30:02;;;;;;;;;;;;;;;;;;4994105;28;19968;-65
2022/08/27 02:32:27;;;;;;;;;;;;;;;;;;4996535;28;19913;-65
2022/08/27 02:34:53;;;;;;;;;;;;;;;;;;5029714;28;19909;-65
2022/08/27 02:37:18;;;;;;;;;;;;;;;;;;5013607;28;20377;-65
2022/08/27 02:39:43;;;;;;;;;;;;;;;;;;5020175;28;19920;-65
2022/08/27 02:42:08;;;;;;;;;;;;;;;;;;5033261;28;19909;-65
2022/08/27 02:44:34;;;;;;;;;;;;;;;;;;5020377;28;19935;-65
2022/08/27 02:47:01;;;;;;;;;;;;;;;;;;4994614;28;19913;-65
2022/08/27 02:49:26;;;;;;;;;;;;;;;;;;5012460;28;20004;-65
2022/08/27 02:51:52;;;;;;;;;;;;;;;;;;4995760;28;20024;-65
2022/08/27 02:54:17;;;;;;;;;;;;;;;;;;5013173;28;19918;-65
2022/08/27 02:56:42;;;;;;;;;;;;;;;;;;5003199;28;19925;-65
2022/08/27 02:59:07;;;;;;;;;;;;;;;;;;4993653;28;19992;-65
2022/08/27 03:01:32;;;;;;;;;;;;;;;;;;5015759;28;19928;-65
2022/08/27 03:03:57;;;;;;;;;;;;;;;;;;4995565;28;19910;-65
2022/08/27 03:06:23;;;;;;;;;;;;;;;;;;5012150;28;19923;-65
2022/08/27 03:08:48;;;;;;;;;;;;;;;;;;5011808;28;19913;-65
2022/08/27 03:11:13;;;;;;;;;;;;;;;;;;4995123;28;20021;-65
2022/08/27 03:13:38;;;;;;;;;;;;;;;;;;5008880;28;19967;-65
2022/08/27 03:16:03;;;;;;;;;;;;;;;;;;5004932;28;19929;-65
2022/08/27 03:18:28;;;;;;;;;;;;;;;;;;5011474;28;19964;-63
2022/08/27 03:20:54;;;;;;;;;;;;;;;;;;5012735;28;20378;-63
2022/08/27 03:23:21;;;;;;;;;;;;;;;;;;4998357;28;19915;-63
2022/08/27 03:25:46;;;;;;;;;;;;;;;;;;5013015;28;19972;-63
2022/08/27 03:28:13;;;;;;;;;;;;;;;;;;5012584;28;19947;-63
2022/08/27 03:30:38;;;;;;;;;;;;;;;;;;5012900;28;19959;-64
2022/08/27 03:33:03;;;;;;;;;;;;;;;;;;5011395;28;19922;-64
2022/08/27 03:35:29;;;;;;;;;;;;;;;;;;4995170;28;19909;-64
2022/08/27 03:37:54;;;;;;;;;;;;;;;;;;5010657;28;19965;-64
2022/08/27 03:40:19;;;;;;;;;;;;;;;;;;4994144;28;19920;-64
2022/08/27 03:42:44;;;;;;;;;;;;;;;;;;5011707;28;19921;-64
2022/08/27 03:45:09;;;;;;;;;;;;;;;;;;5008954;28;20012;-64
2022/08/27 03:47:34;;;;;;;;;;;;;;;;;;5012541;28;19909;-64
2022/08/27 03:49:59;;;;;;;;;;;;;;;;;;4987056;28;19936;-64
2022/08/27 03:52:25;;;;;;;;;;;;;;;;;;4992010;28;20285;-64
2022/08/27 03:54:50;;;;;;;;;;;;;;;;;;5012273;28;19937;-64
2022/08/27 03:57:15;;;;;;;;;;;;;;;;;;5014324;28;19909;-64
2022/08/27 03:59:40;;;;;;;;;;;;;;;;;;5013998;28;20017;-64
2022/08/27 04:02:05;;;;;;;;;;;;;;;;;;5014832;28;19960;-64
2022/08/27 04:04:31;;;;;;;;;;;;;;;;;;5016573;28;19909;-64
2022/08/27 04:06:56;;;;;;;;;;;;;;;;;;5016529;28;20274;-64
2022/08/27 04:09:21;;;;;;;;;;;;;;;;;;5014135;28;19914;-64
2022/08/27 04:11:46;;;;;;;;;;;;;;;;;;4998693;28;20392;-64
2022/08/27 04:14:11;;;;;;;;;;;;;;;;;;5013074;28;19971;-64
2022/08/27 04:16:39;;;;;;;;;;;;;;;;;;4998323;28;19917;-64
2022/08/27 04:19:05;;;;;;;;;;;;;;;;;;4994181;28;20302;-64
2022/08/27 04:21:31;;;;;;;;;;;;;;;;;;5008440;28;19981;-64
2022/08/27 04:23:57;;;;;;;;;;;;;;;;;;5015440;28;19921;-64
2022/08/27 04:26:22;;;;;;;;;;;;;;;;;;4998719;28;19910;-64
2022/08/27 04:28:47;;;;;;;;;;;;;;;;;;5001275;28;20028;-64
2022/08/27 04:31:13;;;;;;;;;;;;;;;;;;5026913;28;20309;-64
2022/08/27 04:33:38;;;;;;;;;;;;;;;;;;5015975;28;19921;-64
2022/08/27 04:36:03;;;;;;;;;;;;;;;;;;5014950;28;20027;-64
2022/08/27 04:38:28;;;;;;;;;;;;;;;;;;5014982;28;19909;-64
2022/08/27 04:43:37;;;;;;;;;;;;;;;;;;4996688;28;20384;-64
2022/08/27 04:46:02;;;;;;;;;;;;;;;;;;5012535;28;19952;-64
2022/08/27 04:48:27;;;;;;;;;;;;;;;;;;4989673;28;19917;-64
2022/08/27 04:50:53;;;;;;;;;;;;;;;;;;5015987;28;20361;-64
2022/08/27 04:53:18;;;;;;;;;;;;;;;;;;5012229;28;19918;-64
2022/08/27 04:55:44;;;;;;;;;;;;;;;;;;5015458;28;20352;-64
2022/08/27 04:58:09;;;;;;;;;;;;;;;;;;5025577;28;19909;-64
2022/08/27 05:00:34;;;;;;;;;;;;;;;;;;5017682;28;19920;-64
2022/08/27 05:03:01;;;;;;;;;;;;;;;;;;5014780;28;19932;-64
2022/08/27 05:05:26;;;;;;;;;;;;;;;;;;5015479;28;19981;-64
2022/08/27 05:07:51;;;;;;;;;;;;;;;;;;5012838;28;19913;-64
2022/08/27 05:10:16;;;;;;;;;;;;;;;;;;5014564;28;19964;-64
2022/08/27 05:12:41;;;;;;;;;;;;;;;;;;5013395;28;19918;-64
2022/08/27 05:15:07;;;;;;;;;;;;;;;;;;5009632;28;20393;-64
2022/08/27 05:17:32;;;;;;;;;;;;;;;;;;4990884;28;19916;-64
2022/08/27 05:19:57;;;;;;;;;;;;;;;;;;5013376;28;19957;-64
2022/08/27 05:22:22;;;;;;;;;;;;;;;;;;5001082;28;20325;-64
2022/08/27 05:24:48;;;;;;;;;;;;;;;;;;5012797;28;20397;-64
2022/08/27 05:27:13;;;;;;;;;;;;;;;;;;4997577;28;20366;-64
2022/08/27 05:29:38;;;;;;;;;;;;;;;;;;4996702;28;19993;-64
2022/08/27 05:32:03;;;;;;;;;;;;;;;;;;5014754;28;19964;-64
2022/08/27 05:34:28;;;;;;;;;;;;;;;;;;5013795;28;19924;-64
2022/08/27 05:36:53;;;;;;;;;;;;;;;;;;5015195;28;19914;-65
2022/08/27 05:39:19;;;;;;;;;;;;;;;;;;5012471;28;20255;-64
2022/08/27 05:41:44;;;;;;;;;;;;;;;;;;5024422;28;19953;-64
2022/08/27 05:44:09;;;;;;;;;;;;;;;;;;5024236;28;19928;-64
2022/08/27 05:46:35;;;;;;;;;;;;;;;;;;4995647;28;19917;-66
2022/08/27 05:49:00;;;;;;;;;;;;;;;;;;5014179;28;19917;-65
2022/08/27 05:51:25;;;;;;;;;;;;;;;;;;5013876;28;19919;-65
2022/08/27 05:53:50;;;;;;;;;;;;;;;;;;5017730;28;19987;-65
2022/08/27 05:56:16;;;;;;;;;;;;;;;;;;5018081;28;19913;-65
2022/08/27 06:01:25;;;;;;;;;;;;;;;;;;5012825;28;19928;-65
2022/08/27 06:03:51;;;;;;;;;;;;;;;;;;5014666;28;19910;-65
2022/08/27 06:06:16;;;;;;;;;;;;;;;;;;5011253;28;20010;-65
2022/08/27 06:08:41;;;;;;;;;;;;;;;;;;5013490;28;19953;-65
2022/08/27 06:11:07;;;;;;;;;;;;;;;;;;5013141;28;19917;-65
2022/08/27 06:13:32;;;;;;;;;;;;;;;;;;5012457;28;19925;-65
2022/08/27 06:15:57;;;;;;;;;;;;;;;;;;5009286;28;20013;-65
2022/08/27 06:18:22;;;;;;;;;;;;;;;;;;5015732;28;19913;-65
2022/08/27 06:20:47;;;;;;;;;;;;;;;;;;5029963;28;19920;-65
2022/08/27 06:23:12;;;;;;;;;;;;;;;;;;5024586;28;19972;-65
2022/08/27 06:25:37;;;;;;;;;;;;;;;;;;5012979;28;19909;-65
2022/08/27 06:28:02;;;;;;;;;;;;;;;;;;5011377;28;19913;-65
2022/08/27 06:30:28;;;;;;;;;;;;;;;;;;5013158;28;19914;-65
2022/08/27 06:32:53;;;;;;;;;;;;;;;;;;5000766;28;20016;-63
2022/08/27 06:35:18;;;;;;;;;;;;;;;;;;4996488;28;19920;-64
2022/08/27 06:37:43;;;;;;;;;;;;;;;;;;5022359;28;20389;-64
2022/08/27 06:40:09;;;;;;;;;;;;;;;;;;4994463;28;19909;-64
2022/08/27 06:42:34;;;;;;;;;;;;;;;;;;5017698;28;20007;-64
2022/08/27 06:44:59;;;;;;;;;;;;;;;;;;5014994;28;19948;-64
2022/08/27 06:47:24;;;;;;;;;;;;;;;;;;5011524;28;20285;-65
2022/08/27 06:49:50;;;;;;;;;;;;;;;;;;4993944;28;19910;-65
2022/08/27 06:52:15;;;;;;;;;;;;;;;;;;5012047;28;19909;-65
2022/08/27 06:54:40;;;;;;;;;;;;;;;;;;5011924;28;19917;-65
2022/08/27 06:57:05;;;;;;;;;;;;;;;;;;5012707;28;20004;-64
2022/08/27 06:59:30;;;;;;;;;;;;;;;;;;5010561;28;19913;-64
2022/08/27 07:01:55;;;;;;;;;;;;;;;;;;5011080;28;20004;-65
2022/08/27 07:04:21;;;;;;;;;;;;;;;;;;4990660;28;19914;-64
2022/08/27 07:06:46;;;;;;;;;;;;;;;;;;4992859;28;20381;-64
2022/08/27 07:09:11;;;;;;;;;;;;;;;;;;4996945;28;20048;-64
2022/08/27 07:11:37;;;;;;;;;;;;;;;;;;5011000;28;19913;-64
2022/08/27 07:16:26;;;;;;;;;;;;;;;;;;5112028;27;19963;-64
2022/08/27 07:18:51;;;;;;;;;;;;;;;;;;5127974;28;19918;-64
2022/08/27 07:21:18;;;;;;;;;;;;;;;;;;5088810;28;19908;-64
2022/08/27 07:23:43;;;;;;;;;;;;;;;;;;5101878;28;20002;-64
2022/08/27 07:26:09;;;;;;;;;;;;;;;;;;5110186;28;20004;-64
2022/08/27 07:28:34;;;;;;;;;;;;;;;;;;5091835;28;19908;-64
2022/08/27 07:30:59;;;;;;;;;;;;;;;;;;5098196;28;19912;-63
2022/08/27 07:33:24;;;;;;;;;;;;;;;;;;5093846;28;19951;-63
2022/08/27 07:35:50;;;;;;;;;;;;;;;;;;5090614;28;20009;-63
2022/08/27 07:38:15;;;;;;;;;;;;;;;;;;5091415;28;19912;-64
2022/08/27 07:40:41;;;;;;;;;;;;;;;;;;5102862;28;20003;-65
2022/08/27 07:45:54;;;;;;;;;;;;;;;;;;5099625;28;19919;-65
2022/08/27 07:48:19;;;;;;;;;;;;;;;;;;5092113;28;20291;-64
2022/08/27 07:50:45;;;;;;;;;;;;;;;;;;5089764;28;19908;-64
2022/08/27 07:53:10;;;;;;;;;;;;;;;;;;5101210;28;19966;-64
2022/08/27 07:55:35;;;;;;;;;;;;;;;;;;5097927;28;19945;-64
2022/08/27 07:58:00;;;;;;;;;;;;;;;;;;5109568;28;19943;-64
2022/08/27 08:00:27;;;;;;;;;;;;;;;;;;5109730;28;19908;-64
2022/08/27 08:02:52;;;;;;;;;;;;;;;;;;5102478;28;19912;-64
2022/08/27 08:05:17;;;;;;;;;;;;;;;;;;5109248;28;19908;-64
2022/08/27 08:07:43;;;;;;;;;;;;;;;;;;5090984;28;19914;-64
2022/08/27 08:10:08;;;;;;;;;;;;;;;;;;5108607;28;20265;-64
2022/08/27 08:12:33;;;;;;;;;;;;;;;;;;5101618;28;19912;-64
2022/08/27 08:14:58;;;;;;;;;;;;;;;;;;5081869;28;19927;-64
2022/08/27 08:17:24;;;;;;;;;;;;;;;;;;5108191;28;19912;-64
2022/08/27 08:19:50;;;;;;;;;;;;;;;;;;5108295;28;19916;-63
2022/08/27 08:22:15;;;;;;;;;;;;;;;;;;5107428;28;20364;-66
2022/08/27 08:24:40;;;;;;;;;;;;;;;;;;5087728;28;20288;-65
2022/08/27 08:27:05;;;;;;;;;;;;;;;;;;5092289;28;20462;-64
2022/08/27 08:29:30;;;;;;;;;;;;;;;;;;5077111;28;20003;-64
2022/08/27 08:31:55;;;;;;;;;;;;;;;;;;5093619;28;19912;-64
2022/08/27 08:34:20;;;;;;;;;;;;;;;;;;5083265;28;19923;-64
2022/08/27 08:36:45;;;;;;;;;;;;;;;;;;5076836;28;19919;-64
2022/08/27 08:39:11;;;;;;;;;;;;;;;;;;5090675;28;19913;-64
2022/08/27 08:41:36;;;;;;;;;;;;;;;;;;5075486;28;19923;-65
2022/08/27 08:44:01;;;;;;;;;;;;;;;;;;5056353;28;20176;-64
2022/08/27 08:46:26;;;;;;;;;;;;;;;;;;5056482;28;19954;-64
2022/08/27 08:48:51;;;;;;;;;;;;;;;;;;5074553;28;19959;-64
2022/08/27 08:51:16;;;;;;;;;;;;;;;;;;5072003;28;19919;-65
2022/08/27 08:53:41;;;;;;;;;;;;;;;;;;5092067;28;20291;-65
2022/08/27 08:56:07;;;;;;;;;;;;;;;;;;5075545;28;19915;-65
2022/08/27 08:58:33;;;;;;;;;;;;;;;;;;5094700;28;19960;-65
2022/08/27 09:00:58;;;;;;;;;;;;;;;;;;5090510;28;19916;-64
2022/08/27 09:03:23;;;;;;;;;;;;;;;;;;5074474;28;19908;-64
2022/08/27 09:05:49;;;;;;;;;;;;;;;;;;5075717;28;20253;-64
2022/08/27 09:08:14;;;;;;;;;;;;;;;;;;5074665;28;20381;-63
2022/08/27 09:10:39;;;;;;;;;;;;;;;;;;5055686;28;19920;-63
2022/08/27 09:13:04;;;;;;;;;;;;;;;;;;5056126;28;19909;-64
2022/08/27 09:15:30;;;;;;;;;;;;;;;;;;5085975;28;19920;-64
2022/08/27 09:17:55;;;;;;;;;;;;;;;;;;5099804;28;20364;-64
2022/08/27 09:20:20;;;;;;;;;;;;;;;;;;5087924;28;19953;-64
2022/08/27 09:22:46;;;;;;;;;;;;;;;;;;5086296;28;19999;-64
2022/08/27 09:25:11;;;;;;;;;;;;;;;;;;5114336;28;20010;-64
2022/08/27 09:27:36;;;;;;;;;;;;;;;;;;5092323;28;19923;-64
2022/08/27 09:30:01;;;;;;;;;;;;;;;;;;5094116;28;19908;-64
2022/08/27 09:32:26;;;;;;;;;;;;;;;;;;5093068;28;20353;-64
2022/08/27 09:34:51;;;;;;;;;;;;;;;;;;5072035;28;20299;-64
2022/08/27 09:37:19;;;;;;;;;;;;;;;;;;5069742;28;20287;-64
2022/08/27 09:39:44;;;;;;;;;;;;;;;;;;5091885;28;20002;-65
2022/08/27 09:42:09;;;;;;;;;;;;;;;;;;5093516;28;19951;-64
2022/08/27 09:44:34;;;;;;;;;;;;;;;;;;5056401;28;20423;-64
2022/08/27 09:47:01;;;;;;;;;;;;;;;;;;5077281;28;20001;-64
2022/08/27 09:49:26;;;;;;;;;;;;;;;;;;5089914;28;19919;-65
2022/08/27 09:51:51;;;;;;;;;;;;;;;;;;5063576;28;20291;-65
2022/08/27 09:54:16;;;;;;;;;;;;;;;;;;5072458;28;19912;-65
2022/08/27 09:56:41;;;;;;;;;;;;;;;;;;5089357;28;20003;-64
2022/08/27 09:59:06;;;;;;;;;;;;;;;;;;5087638;28;19961;-65
2022/08/27 10:01:32;;;;;;;;;;;;;;;;;;5088138;28;20320;-65
2022/08/27 10:03:57;;;;;;;;;;;;;;;;;;5093170;28;20012;-65
2022/08/27 10:06:22;;;;;;;;;;;;;;;;;;5093154;28;19915;-65
2022/08/27 10:08:47;;;;;;;;;;;;;;;;;;5079636;28;20272;-64
2022/08/27 10:11:13;;;;;;;;;;;;;;;;;;5055262;28;20280;-65
2022/08/27 10:13:38;;;;;;;;;;;;;;;;;;5072528;28;19913;-64
2022/08/27 10:16:03;;;;;;;;;;;;;;;;;;5073648;28;20280;-64
2022/08/27 10:18:28;;;;;;;;;;;;;;;;;;5091395;28;20427;-64
2022/08/27 10:20:53;;;;;;;;;;;;;;;;;;5075090;28;20328;-64
2022/08/27 10:23:18;;;;;;;;;;;;;;;;;;5090381;28;20003;-64
2022/08/27 10:25:44;;;;;;;;;;;;;;;;;;5074635;28;19957;-64
2022/08/27 10:28:09;;;;;;;;;;;;;;;;;;5093000;28;20007;-64
2022/08/27 10:30:34;;;;;;;;;;;;;;;;;;5075815;28;19912;-64
2022/08/27 10:32:59;;;;;;;;;;;;;;;;;;5089200;28;19965;-64
2022/08/27 10:35:24;;;;;;;;;;;;;;;;;;5091459;28;20439;-65
2022/08/27 10:37:51;;;;;;;;;;;;;;;;;;5091880;28;19919;-65
2022/08/27 10:40:16;;;;;;;;;;;;;;;;;;5092236;28;19958;-64
2022/08/27 10:42:41;;;;;;;;;;;;;;;;;;5075435;28;19912;-63
2022/08/27 10:45:07;;;;;;;;;;;;;;;;;;5076196;28;20338;-64
2022/08/27 10:47:32;;;;;;;;;;;;;;;;;;5072532;28;19921;-64
2022/08/27 10:49:57;;;;;;;;;;;;;;;;;;5072162;28;19973;-64
2022/08/27 10:52:22;;;;;;;;;;;;;;;;;;5054374;28;20206;-64
2022/08/27 10:54:47;;;;;;;;;;;;;;;;;;5057958;28;19923;-64
2022/08/27 10:57:12;;;;;;;;;;;;;;;;;;5074398;28;19964;-64
2022/08/27 10:59:38;;;;;;;;;;;;;;;;;;5092493;28;19914;-64
2022/08/27 11:02:03;;;;;;;;;;;;;;;;;;5084552;28;19923;-64
2022/08/27 11:04:28;;;;;;;;;;;;;;;;;;5086869;28;19912;-65
2022/08/27 11:06:54;;;;;;;;;;;;;;;;;;5091535;28;19912;-63
2022/08/27 11:09:19;;;;;;;;;;;;;;;;;;5073340;28;19909;-64
2022/08/27 11:11:44;;;;;;;;;;;;;;;;;;5091175;28;19999;-65
2022/08/27 11:14:09;;;;;;;;;;;;;;;;;;5085903;28;19920;-65
2022/08/27 11:16:34;;;;;;;;;;;;;;;;;;5076232;28;19944;-65
2022/08/27 11:18:59;;;;;;;;;;;;;;;;;;5060046;28;19908;-64
2022/08/27 11:21:25;;;;;;;;;;;;;;;;;;5074348;28;19908;-63
2022/08/27 11:23:50;;;;;;;;;;;;;;;;;;5068323;28;19912;-63
2022/08/27 11:26:15;;;;;;;;;;;;;;;;;;5078508;28;20456;-64
2022/08/27 11:28:40;;;;;;;;;;;;;;;;;;5079431;28;20415;-65
2022/08/27 11:31:05;;;;;;;;;;;;;;;;;;5089400;28;19916;-65
2022/08/27 11:33:31;;;;;;;;;;;;;;;;;;5071527;28;19919;-65
2022/08/27 11:35:56;;;;;;;;;;;;;;;;;;5072012;28;19964;-64
2022/08/27 11:38:24;;;;;;;;;;;;;;;;;;5086224;28;19915;-65
2022/08/27 11:40:49;;;;;;;;;;;;;;;;;;5073462;28;19995;-65
2022/08/27 11:43:14;;;;;;;;;;;;;;;;;;5088184;28;20600;-64
2022/08/27 11:45:39;;;;;;;;;;;;;;;;;;5070608;28;19913;-64
2022/08/27 11:48:04;;;;;;;;;;;;;;;;;;5087845;28;19918;-65
2022/08/27 11:50:30;;;;;;;;;;;;;;;;;;5058941;28;19909;-65
2022/08/27 11:52:56;;;;;;;;;;;;;;;;;;5086545;28;19909;-64
2022/08/27 11:55:21;;;;;;;;;;;;;;;;;;5068378;28;19956;-65
2022/08/27 11:57:46;;;;;;;;;;;;;;;;;;5089668;28;19955;-65
2022/08/27 12:00:12;;;;;;;;;;;;;;;;;;5092045;28;19912;-65
2022/08/27 12:02:37;;;;;;;;;;;;;;;;;;5061271;28;19908;-65
2022/08/27 12:05:02;;;;;;;;;;;;;;;;;;5058027;28;19951;-64
2022/08/27 12:07:29;;;;;;;;;;;;;;;;;;5075699;28;19920;-65
2022/08/27 12:09:54;;;;;;;;;;;;;;;;;;5074625;28;19959;-65
2022/08/27 12:12:19;;;;;;;;;;;;;;;;;;5057320;28;19948;-64
2022/08/27 12:14:45;;;;;;;;;;;;;;;;;;5079488;28;19930;-64
2022/08/27 12:17:10;;;;;;;;;;;;;;;;;;5104116;28;19908;-65
2022/08/27 12:19:35;;;;;;;;;;;;;;;;;;5097391;28;19920;-65
2022/08/27 12:22:00;;;;;;;;;;;;;;;;;;5095314;28;20332;-64
2022/08/27 12:24:25;;;;;;;;;;;;;;;;;;5079870;28;20123;-64
2022/08/27 12:26:50;;;;;;;;;;;;;;;;;;5093458;28;19978;-64
2022/08/27 12:29:15;;;;;;;;;;;;;;;;;;5091492;28;19916;-64
2022/08/27 12:31:41;;;;;;;;;;;;;;;;;;5091561;28;19911;-64
2022/08/27 12:34:06;;;;;;;;;;;;;;;;;;5079083;28;19916;-64
2022/08/27 12:36:33;;;;;;;;;;;;;;;;;;5075177;28;19912;-64
2022/08/27 12:38:58;;;;;;;;;;;;;;;;;;5057375;28;19919;-65
2022/08/27 12:41:24;;;;;;;;;;;;;;;;;;5082666;28;19912;-64
2022/08/27 12:43:49;;;;;;;;;;;;;;;;;;5085046;28;20069;-64
2022/08/27 12:46:14;;;;;;;;;;;;;;;;;;5094194;28;20284;-64
2022/08/27 12:48:39;;;;;;;;;;;;;;;;;;5070944;28;20363;-64
2022/08/27 12:51:04;;;;;;;;;;;;;;;;;;5079774;28;20006;-64
2022/08/27 12:53:30;;;;;;;;;;;;;;;;;;5093548;28;19908;-64
2022/08/27 12:55:55;;;;;;;;;;;;;;;;;;5094659;28;19916;-64
2022/08/27 12:58:20;;;;;;;;;;;;;;;;;;5076958;28;19915;-64
2022/08/27 13:00:45;;;;;;;;;;;;;;;;;;5094054;28;20003;-64
2022/08/27 13:03:10;;;;;;;;;;;;;;;;;;5056628;28;19916;-64
2022/08/27 13:05:36;;;;;;;;;;;;;;;;;;5074364;28;19935;-64
2022/08/27 13:08:01;;;;;;;;;;;;;;;;;;5080666;28;20016;-64
2022/08/27 13:10:27;;;;;;;;;;;;;;;;;;5058683;28;19908;-64
2022/08/27 13:12:52;;;;;;;;;;;;;;;;;;5082926;28;19912;-64
2022/08/27 13:15:17;;;;;;;;;;;;;;;;;;5083824;28;20449;-64
2022/08/27 13:17:42;;;;;;;;;;;;;;;;;;5074150;28;20360;-64
2022/08/27 13:20:08;;;;;;;;;;;;;;;;;;5077977;28;20308;-63
2022/08/27 13:22:33;;;;;;;;;;;;;;;;;;5091264;28;21091;-63
2022/08/27 13:24:58;;;;;;;;;;;;;;;;;;5089090;28;19908;-63
2022/08/27 13:27:24;;;;;;;;;;;;;;;;;;5067922;28;19913;-64
2022/08/27 13:29:50;;;;;;;;;;;;;;;;;;5072186;28;19915;-64
2022/08/27 13:32:15;;;;;;;;;;;;;;;;;;5086340;28;19951;-64
2022/08/27 13:34:40;;;;;;;;;;;;;;;;;;5094017;28;19963;-63
2022/08/27 13:37:05;;;;;;;;;;;;;;;;;;5090994;28;19912;-64
2022/08/27 13:39:30;;;;;;;;;;;;;;;;;;5074929;28;19957;-63
2022/08/27 13:41:56;;;;;;;;;;;;;;;;;;5093851;28;19939;-63
2022/08/27 13:44:21;;;;;;;;;;;;;;;;;;5089714;28;19912;-64
2022/08/27 13:46:46;;;;;;;;;;;;;;;;;;5093960;28;19911;-64
2022/08/27 13:49:11;;;;;;;;;;;;;;;;;;5089576;28;19912;-64
2022/08/27 13:51:37;;;;;;;;;;;;;;;;;;5093719;28;20291;-64
2022/08/27 13:54:17;;;;;;;;;;;;;;;;;;5092259;28;20275;-63
2022/08/27 13:56:42;;;;;;;;;;;;;;;;;;5093555;28;20385;-63
2022/08/27 13:59:07;;;;;;;;;;;;;;;;;;5072501;28;19912;-64
2022/08/27 14:01:32;;;;;;;;;;;;;;;;;;5089387;28;19919;-64
2022/08/27 14:03:58;;;;;;;;;;;;;;;;;;5113725;28;19907;-65
2022/08/27 14:06:23;;;;;;;;;;;;;;;;;;5096098;28;19915;-64
2022/08/27 14:08:48;;;;;;;;;;;;;;;;;;5089201;28;20389;-63
2022/08/27 14:11:14;;;;;;;;;;;;;;;;;;5079337;28;19919;-61
2022/08/27 14:13:40;;;;;;;;;;;;;;;;;;5072948;28;19909;-61
2022/08/27 14:16:05;;;;;;;;;;;;;;;;;;5089747;28;19931;-61
2022/08/27 14:18:30;;;;;;;;;;;;;;;;;;5093093;28;19914;-61
2022/08/27 14:20:55;;;;;;;;;;;;;;;;;;5083477;28;19959;-65
2022/08/27 14:23:21;;;;;;;;;;;;;;;;;;5084518;28;19908;-64
2022/08/27 14:25:46;;;;;;;;;;;;;;;;;;5084430;28;20387;-63
2022/08/27 14:28:11;;;;;;;;;;;;;;;;;;5060889;28;19908;-65
2022/08/27 14:30:37;;;;;;;;;;;;;;;;;;5090797;28;19919;-64
2022/08/27 14:33:02;;;;;;;;;;;;;;;;;;5075616;28;20241;-64
2022/08/27 14:35:27;;;;;;;;;;;;;;;;;;5072238;28;20769;-64
2022/08/27 14:37:53;;;;;;;;;;;;;;;;;;5088351;28;19908;-64
2022/08/27 14:40:18;;;;;;;;;;;;;;;;;;5089586;28;20002;-64
2022/08/27 14:42:43;;;;;;;;;;;;;;;;;;5061007;28;20019;-64
2022/08/27 14:45:08;;;;;;;;;;;;;;;;;;5070616;28;19919;-64
2022/08/27 14:47:33;;;;;;;;;;;;;;;;;;5090821;28;19915;-63
2022/08/27 14:49:58;;;;;;;;;;;;;;;;;;5087871;28;20431;-64
2022/08/27 14:52:23;;;;;;;;;;;;;;;;;;5087558;28;19912;-64
2022/08/27 14:54:49;;;;;;;;;;;;;;;;;;5087906;28;19920;-65
2022/08/27 14:57:14;;;;;;;;;;;;;;;;;;5092711;28;19912;-64
2022/08/27 14:59:39;;;;;;;;;;;;;;;;;;5074609;28;19908;-64
2022/08/27 15:02:04;;;;;;;;;;;;;;;;;;5063302;28;19927;-64
2022/08/27 15:04:29;;;;;;;;;;;;;;;;;;5073070;28;19919;-63
2022/08/27 15:06:54;;;;;;;;;;;;;;;;;;5079755;28;19995;-64
2022/08/27 15:09:20;;;;;;;;;;;;;;;;;;5053413;28;19944;-64
2022/08/27 15:11:45;;;;;;;;;;;;;;;;;;5072365;28;19921;-63
2022/08/27 15:14:10;;;;;;;;;;;;;;;;;;5057819;28;19934;-64
2022/08/27 15:16:37;;;;;;;;;;;;;;;;;;5076785;28;20023;-63
2022/08/27 15:19:02;;;;;;;;;;;;;;;;;;5069964;28;19919;-64
2022/08/27 15:21:27;;;;;;;;;;;;;;;;;;5092437;28;19912;-64
2022/08/27 15:23:52;;;;;;;;;;;;;;;;;;5075015;28;19920;-63
2022/08/27 15:26:17;;;;;;;;;;;;;;;;;;5072029;28;19912;-64
2022/08/27 15:28:43;;;;;;;;;;;;;;;;;;5079800;28;19908;-64
2022/08/27 15:31:08;;;;;;;;;;;;;;;;;;5091688;28;19916;-64
2022/08/27 15:33:33;;;;;;;;;;;;;;;;;;5067178;28;19955;-65
2022/08/27 15:35:58;;;;;;;;;;;;;;;;;;5052288;28;19916;-64
2022/08/27 15:38:23;;;;;;;;;;;;;;;;;;5074421;28;19959;-64
2022/08/27 15:40:48;;;;;;;;;;;;;;;;;;5075288;28;19908;-64
2022/08/27 15:43:14;;;;;;;;;;;;;;;;;;5075945;28;19912;-64
2022/08/27 15:45:39;;;;;;;;;;;;;;;;;;5042370;28;20447;-64
2022/08/27 15:48:04;;;;;;;;;;;;;;;;;;5063971;28;20397;-64
2022/08/27 15:50:29;;;;;;;;;;;;;;;;;;5055927;28;19966;-64
2022/08/27 15:52:55;;;;;;;;;;;;;;;;;;5043340;28;20375;-64
2022/08/27 15:55:20;;;;;;;;;;;;;;;;;;5075377;28;20287;-64
2022/08/27 15:57:45;;;;;;;;;;;;;;;;;;5044838;28;20438;-63
2022/08/27 16:00:10;;;;;;;;;;;;;;;;;;5058620;28;19912;-64
2022/08/27 16:02:35;;;;;;;;;;;;;;;;;;5070344;28;19916;-65
2022/08/27 16:05:01;;;;;;;;;;;;;;;;;;5047471;28;19954;-64
2022/08/27 16:07:26;;;;;;;;;;;;;;;;;;5055178;28;19917;-64
2022/08/27 16:09:52;;;;;;;;;;;;;;;;;;5036792;28;19915;-64
2022/08/27 16:12:18;;;;;;;;;;;;;;;;;;5037414;28;19940;-64
2022/08/27 16:14:43;;;;;;;;;;;;;;;;;;5038876;28;20011;-64
2022/08/27 16:17:08;;;;;;;;;;;;;;;;;;5066132;28;19984;-63
2022/08/27 16:19:33;;;;;;;;;;;;;;;;;;5069835;28;19916;-63
2022/08/27 16:21:59;;;;;;;;;;;;;;;;;;5055514;28;20395;-64
2022/08/27 16:24:24;;;;;;;;;;;;;;;;;;5071176;28;20385;-63
2022/08/27 16:26:49;;;;;;;;;;;;;;;;;;5075250;28;19908;-65
2022/08/27 16:29:14;;;;;;;;;;;;;;;;;;5054989;28;19956;-64
2022/08/27 16:31:39;;;;;;;;;;;;;;;;;;5062360;28;19915;-64
2022/08/27 16:34:04;;;;;;;;;;;;;;;;;;5055355;28;19916;-64
2022/08/27 16:36:30;;;;;;;;;;;;;;;;;;5062766;28;19969;-65
2022/08/27 16:38:55;;;;;;;;;;;;;;;;;;5073126;28;19920;-64
2022/08/27 16:41:21;;;;;;;;;;;;;;;;;;5074468;28;19909;-63
2022/08/27 16:43:47;;;;;;;;;;;;;;;;;;5068455;28;20369;-63